Weather reports worldwide

Advertisment
Passo Rolle, Italy (16021): temperature & dewpoint: 14.06.2018 11:00:00 - 20.06.2018 11:00:00 (CEST)Passo Rolle, Italy (16021): wind speed: 14.06.2018 11:00:00 - 20.06.2018 11:00:00 (CEST)Passo Rolle, Italy (16021): wind direction: 14.06.2018 11:00:00 - 20.06.2018 11:00:00 (CEST)Passo Rolle, Italy (16021): visibility: 14.06.2018 11:00:00 - 20.06.2018 11:00:00 (CEST)
Date & Time tt [°C] td [°C] ff [km/h] ff [kn] dd vv [km]
20.06.2018 11:00:00 - - - - - -
20.06.2018 10:00:00 - - - - - -
20.06.2018 09:00:00 11,0 10,0 8 4 SE 10
20.06.2018 08:00:00 11,2 8,3 11 6 SE 30
20.06.2018 07:00:00 - - - - - -
20.06.2018 06:00:00 - - - - - -
20.06.2018 05:00:00 10,6 8,7 0 0 N 10
20.06.2018 04:00:00 - - - - - -
20.06.2018 03:00:00 - - - - - -
20.06.2018 02:00:00 10,8 9,2 8 4 E 10
20.06.2018 01:00:00 - - - - - -
20.06.2018 00:00:00 - - - - - -
19.06.2018 23:00:00 11,2 10,0 4 2 N 10
19.06.2018 22:00:00 - - - - - -
19.06.2018 21:00:00 - - - - - -
19.06.2018 20:00:00 13,4 8,5 18 10 SE 20
19.06.2018 19:00:00 - - - - - -
19.06.2018 18:00:00 15,0 6,0 18 10 SE 10
19.06.2018 17:00:00 16,8 5,7 22 12 SE 50
19.06.2018 16:00:00 - - - - - -
19.06.2018 15:00:00 17,0 3,0 15 8 SE 10
19.06.2018 14:00:00 15,6 0,6 11 6 SE 71
19.06.2018 13:00:00 15,0 1,0 4 2 S 10
19.06.2018 12:00:00 15,0 0,0 9 5 N 10
19.06.2018 11:00:00 13,6 0,6 11 6 N 50
19.06.2018 10:00:00 12,0 3,0 4 2 W 10
19.06.2018 09:00:00 12,0 4,0 9 5 W 10
19.06.2018 08:00:00 9,8 3,5 9 5 W 35
19.06.2018 07:00:00 8,0 3,0 9 5 NNW 10
19.06.2018 06:00:00 8,0 3,0 9 5 NNW 10
19.06.2018 05:00:00 9,0 3,0 5 3 NNW 25
19.06.2018 04:00:00 - - - - - -
19.06.2018 03:00:00 - - - - - -
19.06.2018 02:00:00 10,0 4,4 4 2 NNW 10
19.06.2018 01:00:00 - - - - - -
19.06.2018 00:00:00 - - - - - -
18.06.2018 23:00:00 10,4 7,3 0 0 N 12
18.06.2018 22:00:00 - - - - - -
18.06.2018 21:00:00 - - - - - -
18.06.2018 20:00:00 14,0 8,2 13 7 ESE 35
18.06.2018 19:00:00 13,0 7,0 22 12 SE 10
18.06.2018 18:00:00 13,0 6,0 11 6 ESE 10
18.06.2018 17:00:00 14,4 -0,1 13 7 N 35
18.06.2018 16:00:00 12,0 5,0 15 8 NNE 10
18.06.2018 15:00:00 13,0 7,0 13 7 ESE 10
18.06.2018 14:00:00 13,6 5,5 9 5 SSE 35
18.06.2018 13:00:00 - - - - - -
18.06.2018 12:00:00 - - - - - -
18.06.2018 11:00:00 12,8 3,7 8 4 W 35
18.06.2018 10:00:00 12,0 5,0 5 3 WSW 10
18.06.2018 09:00:00 11,0 6,0 13 7 NW 10
18.06.2018 08:00:00 9,2 5,2 9 5 NW 35
18.06.2018 07:00:00 9,0 5,0 5 3 NW 10
18.06.2018 06:00:00 9,0 5,0 11 6 NNW 10
18.06.2018 05:00:00 9,2 4,8 0 0 N 25
18.06.2018 04:00:00 - - - - - -
18.06.2018 03:00:00 - - - - - -
18.06.2018 02:00:00 9,8 7,2 5 3 NNW 12
18.06.2018 01:00:00 - - - - - -
18.06.2018 00:00:00 - - - - - -
17.06.2018 23:00:00 9,8 8,4 15 8 SE 12
17.06.2018 22:00:00 - - - - - -
17.06.2018 21:00:00 - - - - - -
17.06.2018 20:00:00 14,2 8,0 21 11 SE 35
17.06.2018 19:00:00 17,0 5,0 18 10 SE 10
17.06.2018 18:00:00 16,0 4,0 16 9 SE 10
17.06.2018 17:00:00 16,8 0,4 5 3 SE 50
17.06.2018 16:00:00 15,0 1,0 18 10 SE 10
17.06.2018 15:00:00 15,0 1,0 16 9 ESE 10
17.06.2018 14:00:00 16,4 -2,1 9 5 SE 50
17.06.2018 13:00:00 14,0 -4,0 5 3 NNW 10
17.06.2018 12:00:00 13,0 -2,0 16 9 NNW 10
17.06.2018 11:00:00 13,0 -2,1 11 6 N 50
17.06.2018 10:00:00 12,0 -2,0 13 7 NNW 10
17.06.2018 09:00:00 10,0 4,0 9 5 NNW 10
17.06.2018 08:00:00 9,0 7,4 11 6 W 30
17.06.2018 07:00:00 8,0 7,0 9 5 N 10
17.06.2018 06:00:00 8,0 6,0 9 5 N 10
17.06.2018 05:00:00 8,4 6,9 4 2 N 4,5
17.06.2018 04:00:00 - - - - - -
17.06.2018 03:00:00 - - - - - -
17.06.2018 02:00:00 9,0 6,1 2 1 N 5
17.06.2018 01:00:00 - - - - - -
17.06.2018 00:00:00 - - - - - -
16.06.2018 23:00:00 9,0 7,4 11 6 SE 4,5
16.06.2018 22:00:00 - - - - - -
16.06.2018 21:00:00 - - - - - -
16.06.2018 20:00:00 11,0 6,7 21 11 SE 20
16.06.2018 19:00:00 11,0 6,0 26 14 SE 10
16.06.2018 18:00:00 14,0 6,0 13 7 SE 10
16.06.2018 17:00:00 12,0 3,2 22 12 SE 30
16.06.2018 16:00:00 15,0 3,0 22 12 SE 10
16.06.2018 15:00:00 15,0 3,0 21 11 SE 10
16.06.2018 14:00:00 15,0 0,8 21 11 SE 30
16.06.2018 13:00:00 15,0 2,0 21 11 SE 10
16.06.2018 12:00:00 8,0 -1,0 9 5 SE 10
16.06.2018 11:00:00 8,0 -1,8 15 8 SE 50
16.06.2018 10:00:00 11,0 2,0 13 7 SE 10
16.06.2018 09:00:00 9,0 -1,0 5 3 WSW 10
16.06.2018 08:00:00 8,0 2,9 8 4 N 30
16.06.2018 07:00:00 6,0 4,0 13 7 N 10
16.06.2018 06:00:00 8,0 6,0 8 4 N 5
16.06.2018 05:00:00 7,6 6,7 8 4 NW 0,3
16.06.2018 04:00:00 - - - - - -
16.06.2018 03:00:00 - - - - - -
16.06.2018 02:00:00 7,6 6,4 5 3 WNW 2,5
16.06.2018 01:00:00 - - - - - -
16.06.2018 00:00:00 - - - - - -
15.06.2018 23:00:00 8,5 6,1 9 5 SE 15
15.06.2018 22:00:00 - - - - - -
15.06.2018 21:00:00 - - - - - -
15.06.2018 20:00:00 11,0 8,6 22 12 SE 30
15.06.2018 19:00:00 11,0 9,0 24 13 SE 10
15.06.2018 18:00:00 14,0 6,0 22 12 SE 10
15.06.2018 17:00:00 13,4 4,3 26 14 SE 30
15.06.2018 16:00:00 15,0 1,0 28 15 SSE 10
15.06.2018 15:00:00 15,0 -3,0 22 12 SE 10
15.06.2018 14:00:00 15,0 -6,0 18 10 SE 50
15.06.2018 13:00:00 13,0 -5,0 15 8 ESE 10
15.06.2018 12:00:00 14,0 -6,0 15 8 SE 10
15.06.2018 11:00:00 11,6 -6,8 4 2 - 80
15.06.2018 10:00:00 10,0 -6,0 8 4 WSW 10
15.06.2018 09:00:00 8,0 -4,0 9 5 NNW 10
15.06.2018 08:00:00 6,0 -3,1 9 5 NW 75
15.06.2018 07:00:00 5,0 -3,0 9 5 NW 10
15.06.2018 06:00:00 4,0 -3,0 11 6 NW 10
15.06.2018 05:00:00 4,0 -3,1 13 7 NW 25
15.06.2018 04:00:00 - - - - - -
15.06.2018 03:00:00 - - - - - -
15.06.2018 02:00:00 6,0 2,8 9 5 NNW 15
15.06.2018 01:00:00 - - - - - -
15.06.2018 00:00:00 - - - - - -
14.06.2018 23:00:00 8,4 7,2 2 1 NE 0,3
14.06.2018 22:00:00 - - - - - -
14.06.2018 21:00:00 - - - - - -
14.06.2018 20:00:00 10,0 7,3 22 12 SE 25
14.06.2018 19:00:00 12,0 7,0 21 11 SE 10
14.06.2018 18:00:00 11,0 5,0 18 10 ESE 10
14.06.2018 17:00:00 12,8 4,2 18 10 SE 25
14.06.2018 16:00:00 12,0 2,0 5 3 W 10
14.06.2018 15:00:00 12,0 3,0 9 5 W 10
14.06.2018 14:00:00 11,2 3,7 13 7 WNW 25
14.06.2018 13:00:00 12,0 3,0 8 4 SSE 10
14.06.2018 12:00:00 9,0 2,0 5 3 WNW 10
14.06.2018 11:00:00 9,2 3,4 9 5 WSW 25

tt = temperature
td = dewpoint
ff = wind speed
dd = wind direction
vv = visibility

Next stations